sensor_id;sensor_type;location;lat;lon;timestamp;temperature;humidity
71668;DHT22;59504;54.806;9.640;2024-01-30T00:00:12;6.90;82.90
71668;DHT22;59504;54.806;9.640;2024-01-30T00:02:33;6.90;83.00
71668;DHT22;59504;54.806;9.640;2024-01-30T00:04:54;7.00;83.30
71668;DHT22;59504;54.806;9.640;2024-01-30T00:07:14;6.90;83.30
71668;DHT22;59504;54.806;9.640;2024-01-30T00:09:15;7.00;83.20
71668;DHT22;59504;54.806;9.640;2024-01-30T00:11:15;7.10;83.20
71668;DHT22;59504;54.806;9.640;2024-01-30T00:13:16;6.90;83.10
71668;DHT22;59504;54.806;9.640;2024-01-30T00:15:18;6.90;83.20
71668;DHT22;59504;54.806;9.640;2024-01-30T00:17:19;7.10;83.20
71668;DHT22;59504;54.806;9.640;2024-01-30T00:19:21;7.10;83.20
71668;DHT22;59504;54.806;9.640;2024-01-30T00:21:22;7.00;83.20
71668;DHT22;59504;54.806;9.640;2024-01-30T00:23:42;7.00;83.30
71668;DHT22;59504;54.806;9.640;2024-01-30T00:26:03;6.90;83.20
71668;DHT22;59504;54.806;9.640;2024-01-30T00:28:25;6.90;83.00
71668;DHT22;59504;54.806;9.640;2024-01-30T00:30:45;7.00;83.10
71668;DHT22;59504;54.806;9.640;2024-01-30T00:33:06;6.90;83.00
71668;DHT22;59504;54.806;9.640;2024-01-30T00:35:27;6.90;83.00
71668;DHT22;59504;54.806;9.640;2024-01-30T00:37:47;7.00;83.00
71668;DHT22;59504;54.806;9.640;2024-01-30T00:40:08;6.90;83.00
71668;DHT22;59504;54.806;9.640;2024-01-30T00:42:30;6.90;82.90
71668;DHT22;59504;54.806;9.640;2024-01-30T00:44:51;6.90;82.90
71668;DHT22;59504;54.806;9.640;2024-01-30T00:47:11;6.90;82.90
71668;DHT22;59504;54.806;9.640;2024-01-30T00:49:32;6.90;82.90
71668;DHT22;59504;54.806;9.640;2024-01-30T00:51:33;7.00;83.10
71668;DHT22;59504;54.806;9.640;2024-01-30T00:53:33;6.90;83.00
71668;DHT22;59504;54.806;9.640;2024-01-30T00:55:34;6.90;83.00
71668;DHT22;59504;54.806;9.640;2024-01-30T00:57:35;6.90;83.00
71668;DHT22;59504;54.806;9.640;2024-01-30T00:59:36;6.90;82.90
71668;DHT22;59504;54.806;9.640;2024-01-30T01:01:44;6.90;83.00
71668;DHT22;59504;54.806;9.640;2024-01-30T01:04:05;7.00;83.00
71668;DHT22;59504;54.806;9.640;2024-01-30T01:06:05;7.00;83.10
71668;DHT22;59504;54.806;9.640;2024-01-30T01:08:26;7.00;83.10
71668;DHT22;59504;54.806;9.640;2024-01-30T01:10:30;7.10;83.20
71668;DHT22;59504;54.806;9.640;2024-01-30T01:12:51;7.00;83.10
71668;DHT22;59504;54.806;9.640;2024-01-30T01:15:11;7.00;83.20
71668;DHT22;59504;54.806;9.640;2024-01-30T01:17:32;7.00;83.20
71668;DHT22;59504;54.806;9.640;2024-01-30T01:19:52;7.00;83.20
71668;DHT22;59504;54.806;9.640;2024-01-30T01:22:13;7.00;83.20
71668;DHT22;59504;54.806;9.640;2024-01-30T01:24:34;7.00;83.20
71668;DHT22;59504;54.806;9.640;2024-01-30T01:26:54;7.00;83.20
71668;DHT22;59504;54.806;9.640;2024-01-30T01:29:16;7.00;83.20
71668;DHT22;59504;54.806;9.640;2024-01-30T01:31:36;7.00;83.20
71668;DHT22;59504;54.806;9.640;2024-01-30T01:33:41;7.00;83.20
71668;DHT22;59504;54.806;9.640;2024-01-30T01:35:41;7.00;83.30
71668;DHT22;59504;54.806;9.640;2024-01-30T01:37:42;7.00;83.20
71668;DHT22;59504;54.806;9.640;2024-01-30T01:39:43;7.00;83.20
71668;DHT22;59504;54.806;9.640;2024-01-30T01:41:43;7.10;83.30
71668;DHT22;59504;54.806;9.640;2024-01-30T01:44:04;7.10;83.30
71668;DHT22;59504;54.806;9.640;2024-01-30T01:46:30;7.10;83.30
71668;DHT22;59504;54.806;9.640;2024-01-30T01:48:50;7.00;83.30
71668;DHT22;59504;54.806;9.640;2024-01-30T01:51:11;7.10;83.30
71668;DHT22;59504;54.806;9.640;2024-01-30T01:53:32;7.10;83.40
71668;DHT22;59504;54.806;9.640;2024-01-30T01:55:52;7.00;83.30
71668;DHT22;59504;54.806;9.640;2024-01-30T01:58:14;7.10;83.30
71668;DHT22;59504;54.806;9.640;2024-01-30T02:00:15;7.10;83.30
71668;DHT22;59504;54.806;9.640;2024-01-30T02:02:16;7.10;83.30
71668;DHT22;59504;54.806;9.640;2024-01-30T02:04:17;7.10;83.30
71668;DHT22;59504;54.806;9.640;2024-01-30T02:06:18;7.10;83.20
71668;DHT22;59504;54.806;9.640;2024-01-30T02:08:20;7.10;83.30
71668;DHT22;59504;54.806;9.640;2024-01-30T02:10:41;7.20;83.30
71668;DHT22;59504;54.806;9.640;2024-01-30T02:13:01;7.10;83.30
71668;DHT22;59504;54.806;9.640;2024-01-30T02:15:13;7.10;83.40
71668;DHT22;59504;54.806;9.640;2024-01-30T02:17:33;7.20;83.50
71668;DHT22;59504;54.806;9.640;2024-01-30T02:19:54;7.20;83.50
71668;DHT22;59504;54.806;9.640;2024-01-30T02:22:14;7.20;83.50
71668;DHT22;59504;54.806;9.640;2024-01-30T02:24:35;7.20;83.50
71668;DHT22;59504;54.806;9.640;2024-01-30T02:26:55;7.20;83.50
71668;DHT22;59504;54.806;9.640;2024-01-30T02:29:15;7.20;83.50
71668;DHT22;59504;54.806;9.640;2024-01-30T02:31:36;7.20;83.50
71668;DHT22;59504;54.806;9.640;2024-01-30T02:33:56;7.30;83.60
71668;DHT22;59504;54.806;9.640;2024-01-30T02:36:17;7.20;83.60
71668;DHT22;59504;54.806;9.640;2024-01-30T02:38:37;7.20;83.60
71668;DHT22;59504;54.806;9.640;2024-01-30T02:40:58;7.20;83.50
71668;DHT22;59504;54.806;9.640;2024-01-30T02:43:18;7.20;83.40
71668;DHT22;59504;54.806;9.640;2024-01-30T02:45:39;7.20;83.50
71668;DHT22;59504;54.806;9.640;2024-01-30T02:47:59;7.30;83.50
71668;DHT22;59504;54.806;9.640;2024-01-30T02:50:19;7.30;83.50
71668;DHT22;59504;54.806;9.640;2024-01-30T02:52:20;7.20;83.50
71668;DHT22;59504;54.806;9.640;2024-01-30T02:54:20;7.20;83.50
71668;DHT22;59504;54.806;9.640;2024-01-30T02:56:21;7.30;83.50
71668;DHT22;59504;54.806;9.640;2024-01-30T02:58:27;7.30;83.60
71668;DHT22;59504;54.806;9.640;2024-01-30T03:00:28;7.30;83.50
71668;DHT22;59504;54.806;9.640;2024-01-30T03:02:29;7.30;83.60
71668;DHT22;59504;54.806;9.640;2024-01-30T03:04:29;7.30;83.60
71668;DHT22;59504;54.806;9.640;2024-01-30T03:06:50;7.30;83.50
71668;DHT22;59504;54.806;9.640;2024-01-30T03:08:51;7.40;83.70
71668;DHT22;59504;54.806;9.640;2024-01-30T03:11:12;7.30;83.60
71668;DHT22;59504;54.806;9.640;2024-01-30T03:13:32;7.30;83.60
71668;DHT22;59504;54.806;9.640;2024-01-30T03:15:53;7.30;83.50
71668;DHT22;59504;54.806;9.640;2024-01-30T03:18:13;7.30;83.50
71668;DHT22;59504;54.806;9.640;2024-01-30T03:20:34;7.30;83.50
71668;DHT22;59504;54.806;9.640;2024-01-30T03:22:55;7.30;83.60
71668;DHT22;59504;54.806;9.640;2024-01-30T03:25:15;7.30;83.50
71668;DHT22;59504;54.806;9.640;2024-01-30T03:27:36;7.30;83.50
71668;DHT22;59504;54.806;9.640;2024-01-30T03:29:38;7.30;83.60
71668;DHT22;59504;54.806;9.640;2024-01-30T03:31:39;7.40;83.60
71668;DHT22;59504;54.806;9.640;2024-01-30T03:33:39;7.30;83.50
71668;DHT22;59504;54.806;9.640;2024-01-30T03:35:40;7.30;83.60
71668;DHT22;59504;54.806;9.640;2024-01-30T03:37:41;7.30;83.60
71668;DHT22;59504;54.806;9.640;2024-01-30T03:39:41;7.40;83.60
71668;DHT22;59504;54.806;9.640;2024-01-30T03:41:42;7.40;83.50
71668;DHT22;59504;54.806;9.640;2024-01-30T03:43:43;7.40;83.50
71668;DHT22;59504;54.806;9.640;2024-01-30T03:45:44;7.40;83.60
71668;DHT22;59504;54.806;9.640;2024-01-30T03:47:45;7.30;83.50
71668;DHT22;59504;54.806;9.640;2024-01-30T03:49:45;7.30;83.50
71668;DHT22;59504;54.806;9.640;2024-01-30T03:51:46;7.30;83.50
71668;DHT22;59504;54.806;9.640;2024-01-30T03:53:47;7.40;83.50
71668;DHT22;59504;54.806;9.640;2024-01-30T03:55:48;7.40;83.50
71668;DHT22;59504;54.806;9.640;2024-01-30T03:57:49;7.30;83.40
71668;DHT22;59504;54.806;9.640;2024-01-30T03:59:50;7.40;83.60
71668;DHT22;59504;54.806;9.640;2024-01-30T04:01:50;7.40;83.60
71668;DHT22;59504;54.806;9.640;2024-01-30T04:03:51;7.40;83.60
71668;DHT22;59504;54.806;9.640;2024-01-30T04:05:52;7.40;83.60
71668;DHT22;59504;54.806;9.640;2024-01-30T04:07:53;7.40;83.70
71668;DHT22;59504;54.806;9.640;2024-01-30T04:09:54;7.40;83.60
71668;DHT22;59504;54.806;9.640;2024-01-30T04:11:55;7.40;83.60
71668;DHT22;59504;54.806;9.640;2024-01-30T04:13:56;7.40;83.70
71668;DHT22;59504;54.806;9.640;2024-01-30T04:15:58;7.30;83.50
71668;DHT22;59504;54.806;9.640;2024-01-30T04:17:59;7.40;84.20
71668;DHT22;59504;54.806;9.640;2024-01-30T04:19:59;7.30;83.50
71668;DHT22;59504;54.806;9.640;2024-01-30T04:22:00;7.30;83.50
71668;DHT22;59504;54.806;9.640;2024-01-30T04:24:00;7.30;83.40
71668;DHT22;59504;54.806;9.640;2024-01-30T04:26:01;7.30;83.40
71668;DHT22;59504;54.806;9.640;2024-01-30T04:28:03;7.30;83.40
71668;DHT22;59504;54.806;9.640;2024-01-30T04:30:04;7.30;83.50
71668;DHT22;59504;54.806;9.640;2024-01-30T04:32:05;7.20;83.30
71668;DHT22;59504;54.806;9.640;2024-01-30T04:34:06;7.20;83.30
71668;DHT22;59504;54.806;9.640;2024-01-30T04:36:08;7.20;83.30
71668;DHT22;59504;54.806;9.640;2024-01-30T04:38:25;7.20;83.30
71668;DHT22;59504;54.806;9.640;2024-01-30T04:40:26;7.20;83.30
71668;DHT22;59504;54.806;9.640;2024-01-30T04:42:28;7.20;83.30
71668;DHT22;59504;54.806;9.640;2024-01-30T04:44:28;7.20;84.00
71668;DHT22;59504;54.806;9.640;2024-01-30T04:46:29;7.20;83.30
71668;DHT22;59504;54.806;9.640;2024-01-30T04:48:30;7.10;83.90
71668;DHT22;59504;54.806;9.640;2024-01-30T04:50:30;7.10;83.20
71668;DHT22;59504;54.806;9.640;2024-01-30T04:52:31;7.10;83.10
71668;DHT22;59504;54.806;9.640;2024-01-30T04:54:32;7.10;83.20
71668;DHT22;59504;54.806;9.640;2024-01-30T04:56:33;7.10;83.10
71668;DHT22;59504;54.806;9.640;2024-01-30T04:58:34;7.00;83.10
71668;DHT22;59504;54.806;9.640;2024-01-30T05:00:35;7.00;83.10
71668;DHT22;59504;54.806;9.640;2024-01-30T05:02:35;7.00;83.10
71668;DHT22;59504;54.806;9.640;2024-01-30T05:04:51;7.00;83.10
71668;DHT22;59504;54.806;9.640;2024-01-30T05:07:12;7.00;83.10
71668;DHT22;59504;54.806;9.640;2024-01-30T05:09:32;6.90;83.00
71668;DHT22;59504;54.806;9.640;2024-01-30T05:11:53;6.90;83.20
71668;DHT22;59504;54.806;9.640;2024-01-30T05:14:14;6.90;83.10
71668;DHT22;59504;54.806;9.640;2024-01-30T05:16:35;6.90;83.10
71668;DHT22;59504;54.806;9.640;2024-01-30T05:18:56;6.90;83.20
71668;DHT22;59504;54.806;9.640;2024-01-30T05:21:16;6.80;83.00
71668;DHT22;59504;54.806;9.640;2024-01-30T05:23:37;6.80;83.00
71668;DHT22;59504;54.806;9.640;2024-01-30T05:25:57;6.80;83.00
71668;DHT22;59504;54.806;9.640;2024-01-30T05:28:19;6.80;83.00
71668;DHT22;59504;54.806;9.640;2024-01-30T05:30:40;6.70;83.00
71668;DHT22;59504;54.806;9.640;2024-01-30T05:32:40;6.70;83.10
71668;DHT22;59504;54.806;9.640;2024-01-30T05:34:41;6.70;82.90
71668;DHT22;59504;54.806;9.640;2024-01-30T05:36:41;6.70;83.00
71668;DHT22;59504;54.806;9.640;2024-01-30T05:38:42;6.70;83.00
71668;DHT22;59504;54.806;9.640;2024-01-30T05:40:43;6.60;82.90
71668;DHT22;59504;54.806;9.640;2024-01-30T05:42:43;6.60;82.90
71668;DHT22;59504;54.806;9.640;2024-01-30T05:44:44;6.60;82.90
71668;DHT22;59504;54.806;9.640;2024-01-30T05:46:45;6.60;82.90
71668;DHT22;59504;54.806;9.640;2024-01-30T05:48:46;6.50;82.80
71668;DHT22;59504;54.806;9.640;2024-01-30T05:50:46;6.50;82.80
71668;DHT22;59504;54.806;9.640;2024-01-30T05:52:47;6.50;82.80
71668;DHT22;59504;54.806;9.640;2024-01-30T05:54:48;6.40;82.70
71668;DHT22;59504;54.806;9.640;2024-01-30T05:56:48;6.40;82.70
71668;DHT22;59504;54.806;9.640;2024-01-30T05:58:49;6.40;82.70
71668;DHT22;59504;54.806;9.640;2024-01-30T06:00:50;6.40;82.70
71668;DHT22;59504;54.806;9.640;2024-01-30T06:02:51;6.40;82.70
71668;DHT22;59504;54.806;9.640;2024-01-30T06:04:51;6.40;82.70
71668;DHT22;59504;54.806;9.640;2024-01-30T06:06:52;6.30;82.60
71668;DHT22;59504;54.806;9.640;2024-01-30T06:08:53;6.30;82.70
71668;DHT22;59504;54.806;9.640;2024-01-30T06:10:56;6.30;82.70
71668;DHT22;59504;54.806;9.640;2024-01-30T06:12:56;6.30;82.80
71668;DHT22;59504;54.806;9.640;2024-01-30T06:14:57;6.30;82.70
71668;DHT22;59504;54.806;9.640;2024-01-30T06:16:58;6.30;82.70
71668;DHT22;59504;54.806;9.640;2024-01-30T06:18:59;6.40;82.80
71668;DHT22;59504;54.806;9.640;2024-01-30T06:21:00;6.20;82.70
71668;DHT22;59504;54.806;9.640;2024-01-30T06:23:01;6.20;82.70
71668;DHT22;59504;54.806;9.640;2024-01-30T06:25:01;6.20;82.70
71668;DHT22;59504;54.806;9.640;2024-01-30T06:27:02;6.20;82.60
71668;DHT22;59504;54.806;9.640;2024-01-30T06:29:03;6.20;82.60
71668;DHT22;59504;54.806;9.640;2024-01-30T06:31:03;6.10;82.50
71668;DHT22;59504;54.806;9.640;2024-01-30T06:33:04;6.10;82.50
71668;DHT22;59504;54.806;9.640;2024-01-30T06:35:05;6.10;82.60
71668;DHT22;59504;54.806;9.640;2024-01-30T06:37:06;6.10;82.40
71668;DHT22;59504;54.806;9.640;2024-01-30T06:39:06;6.10;82.50
71668;DHT22;59504;54.806;9.640;2024-01-30T06:41:07;6.10;82.50
71668;DHT22;59504;54.806;9.640;2024-01-30T06:43:09;6.00;82.40
71668;DHT22;59504;54.806;9.640;2024-01-30T06:45:10;6.00;82.40
71668;DHT22;59504;54.806;9.640;2024-01-30T06:47:10;6.00;82.40
71668;DHT22;59504;54.806;9.640;2024-01-30T06:49:11;6.00;82.40
71668;DHT22;59504;54.806;9.640;2024-01-30T06:51:12;6.00;82.50
71668;DHT22;59504;54.806;9.640;2024-01-30T06:53:13;6.00;82.60
71668;DHT22;59504;54.806;9.640;2024-01-30T06:55:13;5.90;82.50
71668;DHT22;59504;54.806;9.640;2024-01-30T06:57:14;5.90;82.50
71668;DHT22;59504;54.806;9.640;2024-01-30T06:59:15;5.90;82.50
71668;DHT22;59504;54.806;9.640;2024-01-30T07:01:29;5.90;82.60
71668;DHT22;59504;54.806;9.640;2024-01-30T07:03:31;5.90;82.60
71668;DHT22;59504;54.806;9.640;2024-01-30T07:05:35;5.90;82.60
71668;DHT22;59504;54.806;9.640;2024-01-30T07:07:55;5.90;82.60
71668;DHT22;59504;54.806;9.640;2024-01-30T07:09:59;5.90;82.60
71668;DHT22;59504;54.806;9.640;2024-01-30T07:12:20;5.80;82.60
71668;DHT22;59504;54.806;9.640;2024-01-30T07:14:40;5.80;82.60
71668;DHT22;59504;54.806;9.640;2024-01-30T07:17:01;5.80;82.50
71668;DHT22;59504;54.806;9.640;2024-01-30T07:19:22;5.80;82.50
71668;DHT22;59504;54.806;9.640;2024-01-30T07:21:42;5.80;82.50
71668;DHT22;59504;54.806;9.640;2024-01-30T07:24:03;5.90;82.70
71668;DHT22;59504;54.806;9.640;2024-01-30T07:26:23;5.80;82.80
71668;DHT22;59504;54.806;9.640;2024-01-30T07:28:44;5.80;83.40
71668;DHT22;59504;54.806;9.640;2024-01-30T07:30:47;5.80;82.70
71668;DHT22;59504;54.806;9.640;2024-01-30T07:32:49;5.80;82.80
71668;DHT22;59504;54.806;9.640;2024-01-30T07:34:49;5.80;82.70
71668;DHT22;59504;54.806;9.640;2024-01-30T07:36:50;5.80;82.70
71668;DHT22;59504;54.806;9.640;2024-01-30T07:38:51;5.70;83.40
71668;DHT22;59504;54.806;9.640;2024-01-30T07:40:54;5.80;82.70
71668;DHT22;59504;54.806;9.640;2024-01-30T07:42:55;5.70;82.70
71668;DHT22;59504;54.806;9.640;2024-01-30T07:44:55;5.70;82.70
71668;DHT22;59504;54.806;9.640;2024-01-30T07:46:56;5.70;82.70
71668;DHT22;59504;54.806;9.640;2024-01-30T07:48:58;5.70;82.70
71668;DHT22;59504;54.806;9.640;2024-01-30T07:51:01;5.70;82.70
71668;DHT22;59504;54.806;9.640;2024-01-30T07:53:03;5.80;82.80
71668;DHT22;59504;54.806;9.640;2024-01-30T07:55:06;5.70;82.80
71668;DHT22;59504;54.806;9.640;2024-01-30T07:57:11;5.80;82.90
71668;DHT22;59504;54.806;9.640;2024-01-30T07:59:13;5.70;82.80
71668;DHT22;59504;54.806;9.640;2024-01-30T08:01:14;5.80;82.90
71668;DHT22;59504;54.806;9.640;2024-01-30T08:03:15;5.70;83.00
71668;DHT22;59504;54.806;9.640;2024-01-30T08:05:18;5.80;83.20
71668;DHT22;59504;54.806;9.640;2024-01-30T08:07:18;5.80;83.10
71668;DHT22;59504;54.806;9.640;2024-01-30T08:09:20;5.80;83.10
71668;DHT22;59504;54.806;9.640;2024-01-30T08:11:21;5.80;83.10
71668;DHT22;59504;54.806;9.640;2024-01-30T08:13:26;5.80;83.10
71668;DHT22;59504;54.806;9.640;2024-01-30T08:15:27;5.80;83.10
71668;DHT22;59504;54.806;9.640;2024-01-30T08:17:31;5.80;83.20
71668;DHT22;59504;54.806;9.640;2024-01-30T08:19:33;5.80;83.20
71668;DHT22;59504;54.806;9.640;2024-01-30T08:21:34;5.80;83.20
71668;DHT22;59504;54.806;9.640;2024-01-30T08:23:56;5.80;83.20
71668;DHT22;59504;54.806;9.640;2024-01-30T08:26:17;5.90;83.20
71668;DHT22;59504;54.806;9.640;2024-01-30T08:28:38;5.90;83.20
71668;DHT22;59504;54.806;9.640;2024-01-30T08:30:58;5.90;83.20
71668;DHT22;59504;54.806;9.640;2024-01-30T08:33:19;6.00;83.30
71668;DHT22;59504;54.806;9.640;2024-01-30T08:35:40;5.90;83.20
71668;DHT22;59504;54.806;9.640;2024-01-30T08:38:00;5.90;83.20
71668;DHT22;59504;54.806;9.640;2024-01-30T08:40:15;6.00;83.30
71668;DHT22;59504;54.806;9.640;2024-01-30T08:42:36;6.00;83.30
71668;DHT22;59504;54.806;9.640;2024-01-30T08:44:37;6.00;83.30
71668;DHT22;59504;54.806;9.640;2024-01-30T08:46:57;6.00;83.30
71668;DHT22;59504;54.806;9.640;2024-01-30T08:49:18;6.00;83.30
71668;DHT22;59504;54.806;9.640;2024-01-30T08:51:41;6.10;83.40
71668;DHT22;59504;54.806;9.640;2024-01-30T08:54:02;6.10;83.40
71668;DHT22;59504;54.806;9.640;2024-01-30T08:56:23;6.10;83.40
71668;DHT22;59504;54.806;9.640;2024-01-30T08:58:43;6.10;83.40
71668;DHT22;59504;54.806;9.640;2024-01-30T09:01:04;6.20;83.50
71668;DHT22;59504;54.806;9.640;2024-01-30T09:03:25;6.20;83.50
71668;DHT22;59504;54.806;9.640;2024-01-30T09:05:46;6.20;83.60
71668;DHT22;59504;54.806;9.640;2024-01-30T09:07:48;6.20;83.50
71668;DHT22;59504;54.806;9.640;2024-01-30T09:10:09;6.30;83.50
71668;DHT22;59504;54.806;9.640;2024-01-30T09:12:30;6.30;83.40
71668;DHT22;59504;54.806;9.640;2024-01-30T09:14:51;6.30;83.50
71668;DHT22;59504;54.806;9.640;2024-01-30T09:17:11;6.30;83.50
71668;DHT22;59504;54.806;9.640;2024-01-30T09:19:32;6.40;83.50
71668;DHT22;59504;54.806;9.640;2024-01-30T09:21:53;6.40;83.50
71668;DHT22;59504;54.806;9.640;2024-01-30T09:24:14;6.40;83.50
71668;DHT22;59504;54.806;9.640;2024-01-30T09:26:34;6.40;83.40
71668;DHT22;59504;54.806;9.640;2024-01-30T09:28:55;6.40;83.40
71668;DHT22;59504;54.806;9.640;2024-01-30T09:31:15;6.40;83.40
71668;DHT22;59504;54.806;9.640;2024-01-30T09:33:36;6.50;83.40
71668;DHT22;59504;54.806;9.640;2024-01-30T09:35:57;6.50;83.30
71668;DHT22;59504;54.806;9.640;2024-01-30T09:38:17;6.50;83.40
71668;DHT22;59504;54.806;9.640;2024-01-30T09:40:38;6.50;83.30
71668;DHT22;59504;54.806;9.640;2024-01-30T09:42:58;6.60;83.40
71668;DHT22;59504;54.806;9.640;2024-01-30T09:45:23;6.70;83.40
71668;DHT22;59504;54.806;9.640;2024-01-30T09:47:44;6.60;83.30
71668;DHT22;59504;54.806;9.640;2024-01-30T09:50:06;6.60;83.30
71668;DHT22;59504;54.806;9.640;2024-01-30T09:52:27;6.70;83.30
71668;DHT22;59504;54.806;9.640;2024-01-30T09:54:48;6.80;83.30
71668;DHT22;59504;54.806;9.640;2024-01-30T09:57:11;6.70;83.30
71668;DHT22;59504;54.806;9.640;2024-01-30T09:59:31;6.80;83.40
71668;DHT22;59504;54.806;9.640;2024-01-30T10:01:55;6.80;83.40
71668;DHT22;59504;54.806;9.640;2024-01-30T10:04:17;6.80;83.30
71668;DHT22;59504;54.806;9.640;2024-01-30T10:06:37;6.80;83.40
71668;DHT22;59504;54.806;9.640;2024-01-30T10:08:58;6.90;83.50
71668;DHT22;59504;54.806;9.640;2024-01-30T10:11:19;7.00;83.50
71668;DHT22;59504;54.806;9.640;2024-01-30T10:13:39;7.20;83.60
71668;DHT22;59504;54.806;9.640;2024-01-30T10:16:00;7.10;83.50
71668;DHT22;59504;54.806;9.640;2024-01-30T10:18:26;7.00;83.50
71668;DHT22;59504;54.806;9.640;2024-01-30T10:20:48;7.10;83.70
71668;DHT22;59504;54.806;9.640;2024-01-30T10:23:09;7.10;83.60
71668;DHT22;59504;54.806;9.640;2024-01-30T10:25:32;7.20;83.70
71668;DHT22;59504;54.806;9.640;2024-01-30T10:27:53;7.20;83.80
71668;DHT22;59504;54.806;9.640;2024-01-30T10:30:17;7.20;83.50
71668;DHT22;59504;54.806;9.640;2024-01-30T10:32:38;7.30;83.70
71668;DHT22;59504;54.806;9.640;2024-01-30T10:34:59;7.30;83.60
71668;DHT22;59504;54.806;9.640;2024-01-30T10:37:19;7.30;83.70
71668;DHT22;59504;54.806;9.640;2024-01-30T10:39:42;7.40;83.70
71668;DHT22;59504;54.806;9.640;2024-01-30T10:41:43;7.40;84.40
71668;DHT22;59504;54.806;9.640;2024-01-30T10:43:50;7.40;83.70
71668;DHT22;59504;54.806;9.640;2024-01-30T10:45:55;7.50;83.60
71668;DHT22;59504;54.806;9.640;2024-01-30T10:48:00;7.50;83.70
71668;DHT22;59504;54.806;9.640;2024-01-30T10:50:02;7.50;83.60
71668;DHT22;59504;54.806;9.640;2024-01-30T10:52:05;7.50;83.50
71668;DHT22;59504;54.806;9.640;2024-01-30T10:54:07;7.50;83.40
71668;DHT22;59504;54.806;9.640;2024-01-30T10:56:08;7.60;83.50
71668;DHT22;59504;54.806;9.640;2024-01-30T10:58:10;7.50;83.40
71668;DHT22;59504;54.806;9.640;2024-01-30T11:00:32;7.50;83.40
71668;DHT22;59504;54.806;9.640;2024-01-30T11:02:45;7.60;83.50
71668;DHT22;59504;54.806;9.640;2024-01-30T11:05:05;7.60;83.40
71668;DHT22;59504;54.806;9.640;2024-01-30T11:07:29;7.70;83.50
71668;DHT22;59504;54.806;9.640;2024-01-30T11:12:12;7.70;84.10
71668;DHT22;59504;54.806;9.640;2024-01-30T11:14:33;7.70;83.30
71668;DHT22;59504;54.806;9.640;2024-01-30T11:16:56;7.70;83.20
71668;DHT22;59504;54.806;9.640;2024-01-30T11:19:23;7.80;83.30
71668;DHT22;59504;54.806;9.640;2024-01-30T11:21:47;7.80;83.20
71668;DHT22;59504;54.806;9.640;2024-01-30T11:24:10;7.80;83.20
71668;DHT22;59504;54.806;9.640;2024-01-30T11:26:31;7.80;83.20
71668;DHT22;59504;54.806;9.640;2024-01-30T11:28:52;7.80;83.10
71668;DHT22;59504;54.806;9.640;2024-01-30T11:31:13;7.80;83.10
71668;DHT22;59504;54.806;9.640;2024-01-30T11:33:39;7.80;83.00
71668;DHT22;59504;54.806;9.640;2024-01-30T11:35:59;7.80;83.00
71668;DHT22;59504;54.806;9.640;2024-01-30T11:38:20;7.90;82.90
71668;DHT22;59504;54.806;9.640;2024-01-30T11:40:42;7.90;82.80
71668;DHT22;59504;54.806;9.640;2024-01-30T11:43:04;7.90;82.70
71668;DHT22;59504;54.806;9.640;2024-01-30T11:45:26;7.90;82.80
71668;DHT22;59504;54.806;9.640;2024-01-30T11:47:46;7.90;82.80
71668;DHT22;59504;54.806;9.640;2024-01-30T11:50:07;8.00;82.80
71668;DHT22;59504;54.806;9.640;2024-01-30T11:52:31;8.00;82.80
71668;DHT22;59504;54.806;9.640;2024-01-30T11:54:51;8.00;82.70
71668;DHT22;59504;54.806;9.640;2024-01-30T11:57:12;8.00;82.70
71668;DHT22;59504;54.806;9.640;2024-01-30T11:59:33;8.00;82.70
71668;DHT22;59504;54.806;9.640;2024-01-30T12:01:53;8.00;82.70
71668;DHT22;59504;54.806;9.640;2024-01-30T12:04:16;8.00;82.70
71668;DHT22;59504;54.806;9.640;2024-01-30T12:06:37;8.00;82.60
71668;DHT22;59504;54.806;9.640;2024-01-30T12:09:01;8.10;82.70
71668;DHT22;59504;54.806;9.640;2024-01-30T12:11:24;8.00;82.60
71668;DHT22;59504;54.806;9.640;2024-01-30T12:13:45;8.10;82.60
71668;DHT22;59504;54.806;9.640;2024-01-30T12:16:05;8.10;82.60
71668;DHT22;59504;54.806;9.640;2024-01-30T12:18:26;8.10;82.50
71668;DHT22;59504;54.806;9.640;2024-01-30T12:20:56;8.10;82.60
71668;DHT22;59504;54.806;9.640;2024-01-30T12:23:17;8.10;82.50
71668;DHT22;59504;54.806;9.640;2024-01-30T12:25:40;8.10;82.50
71668;DHT22;59504;54.806;9.640;2024-01-30T12:28:01;8.20;82.60
71668;DHT22;59504;54.806;9.640;2024-01-30T12:30:22;8.20;82.50
71668;DHT22;59504;54.806;9.640;2024-01-30T12:32:44;8.20;82.50
71668;DHT22;59504;54.806;9.640;2024-01-30T12:35:15;8.20;82.40
71668;DHT22;59504;54.806;9.640;2024-01-30T12:37:35;8.20;82.40
71668;DHT22;59504;54.806;9.640;2024-01-30T12:39:56;8.20;82.50
71668;DHT22;59504;54.806;9.640;2024-01-30T12:42:17;8.20;82.40
71668;DHT22;59504;54.806;9.640;2024-01-30T12:44:37;8.40;82.50
71668;DHT22;59504;54.806;9.640;2024-01-30T12:46:57;8.30;82.40
71668;DHT22;59504;54.806;9.640;2024-01-30T12:48:58;8.20;82.90
71668;DHT22;59504;54.806;9.640;2024-01-30T12:50:59;8.30;82.30
71668;DHT22;59504;54.806;9.640;2024-01-30T12:53:00;8.30;82.30
71668;DHT22;59504;54.806;9.640;2024-01-30T12:55:01;8.30;82.30
71668;DHT22;59504;54.806;9.640;2024-01-30T12:57:01;8.30;82.10
71668;DHT22;59504;54.806;9.640;2024-01-30T12:59:06;8.30;82.00
71668;DHT22;59504;54.806;9.640;2024-01-30T13:01:07;8.30;82.00
71668;DHT22;59504;54.806;9.640;2024-01-30T13:03:07;8.30;82.10
71668;DHT22;59504;54.806;9.640;2024-01-30T13:05:28;8.30;82.00
71668;DHT22;59504;54.806;9.640;2024-01-30T13:07:49;8.30;82.00
71668;DHT22;59504;54.806;9.640;2024-01-30T13:09:50;8.30;82.00
71668;DHT22;59504;54.806;9.640;2024-01-30T13:12:10;8.30;82.10
71668;DHT22;59504;54.806;9.640;2024-01-30T13:14:31;8.30;82.00
71668;DHT22;59504;54.806;9.640;2024-01-30T13:16:54;8.50;82.20
71668;DHT22;59504;54.806;9.640;2024-01-30T13:19:15;8.40;82.10
71668;DHT22;59504;54.806;9.640;2024-01-30T13:21:36;8.40;82.10
71668;DHT22;59504;54.806;9.640;2024-01-30T13:23:57;8.40;82.10
71668;DHT22;59504;54.806;9.640;2024-01-30T13:26:17;8.40;82.10
71668;DHT22;59504;54.806;9.640;2024-01-30T13:28:38;8.40;81.90
71668;DHT22;59504;54.806;9.640;2024-01-30T13:30:59;8.40;82.10
71668;DHT22;59504;54.806;9.640;2024-01-30T13:33:19;8.50;82.00
71668;DHT22;59504;54.806;9.640;2024-01-30T13:35:40;8.50;82.10
71668;DHT22;59504;54.806;9.640;2024-01-30T13:38:01;8.50;82.10
71668;DHT22;59504;54.806;9.640;2024-01-30T13:40:21;8.50;82.10
71668;DHT22;59504;54.806;9.640;2024-01-30T13:42:42;8.40;82.00
71668;DHT22;59504;54.806;9.640;2024-01-30T13:45:03;8.50;82.10
71668;DHT22;59504;54.806;9.640;2024-01-30T13:47:24;8.50;82.10
71668;DHT22;59504;54.806;9.640;2024-01-30T13:49:45;8.60;82.20
71668;DHT22;59504;54.806;9.640;2024-01-30T13:52:05;8.50;82.10
71668;DHT22;59504;54.806;9.640;2024-01-30T13:54:29;8.50;82.10
71668;DHT22;59504;54.806;9.640;2024-01-30T13:56:51;8.50;82.10
71668;DHT22;59504;54.806;9.640;2024-01-30T13:59:11;8.50;82.00
71668;DHT22;59504;54.806;9.640;2024-01-30T14:01:32;8.50;82.00
71668;DHT22;59504;54.806;9.640;2024-01-30T14:03:55;8.50;82.10
71668;DHT22;59504;54.806;9.640;2024-01-30T14:06:20;8.50;82.00
71668;DHT22;59504;54.806;9.640;2024-01-30T14:08:41;8.50;82.10